»·PEaware :: CGHFO KBFL-KCMA

CGHFO :: KBFL-KCMA

FLIGHT INFORMATION

Flight Status: Arrived
Operator: Unknown
More flights by this operator :: More flights under this callsign
Pilot: Basie S. (26327)
Aircraft: BEECH AIRCRAFT DEBONAIR BONANZA
(BE33)
More flights by this aircraft type
Origin: KBFL Meadows
United States
Destination: KCMA Camarillo
United States
More flights between these airports :: More routes between these airports
Route: MARIC4 GMN SESPE
File this flight plan on PilotEdge
Remarks:
Altitude:
(Current/Filed)
11,000ft
Speed:
(Current/Filed)
155kts
Departed: 09-Mar-20 06:48 PM
Arrived: 09-Mar-20 07:35 PM
Distance/Time
Traveled:
73nm/0:47
Distance/Time
To Go:
Arrived

Flight Plot

Page will automatically refresh every two minutes.

Flight plan parsing failed; only flown route is shown


Map Options




Map Legend


Flown Route
Filed Route
Departure Airport
Arrival Airport
Navaid (VOR, NDB)
Fix

Horizontal Profiles

Position Reports

Time Latitude Longitude Heading Altitude Ground
Speed
09-Mar-20 18:24 35.429371 -119.046101 226 510ft 0kts
09-Mar-20 18:25 35.429371 -119.046101 226 510ft 0kts
09-Mar-20 18:26 35.429371 -119.046101 226 510ft 0kts
09-Mar-20 18:27 35.429371 -119.046101 226 510ft 0kts
09-Mar-20 18:28 35.429371 -119.046101 226 510ft 0kts
09-Mar-20 18:29 35.429371 -119.046101 226 510ft 0kts
09-Mar-20 18:30 35.429371 -119.046101 226 510ft 0kts
09-Mar-20 18:31 35.429371 -119.046101 226 510ft 0kts
09-Mar-20 18:32 35.429371 -119.046101 226 510ft 0kts
09-Mar-20 18:33 35.429371 -119.046101 226 510ft 0kts
09-Mar-20 18:34 35.429371 -119.046101 226 510ft 0kts
09-Mar-20 18:35 35.429371 -119.046101 226 510ft 0kts
09-Mar-20 18:36 35.429371 -119.046101 226 510ft 0kts
09-Mar-20 18:37 35.429371 -119.046101 226 510ft 0kts
09-Mar-20 18:38 35.429371 -119.046101 226 510ft 0kts
09-Mar-20 18:39 35.429371 -119.046101 226 510ft 0kts
09-Mar-20 18:40 35.429371 -119.046101 226 510ft 0kts
09-Mar-20 18:41 35.429371 -119.046101 226 510ft 0kts
09-Mar-20 18:42 35.428855 -119.046665 232 510ft 3kts
09-Mar-20 18:43 35.427290 -119.046037 137 510ft 9kts
09-Mar-20 18:44 35.426194 -119.044725 143 510ft 5kts
09-Mar-20 18:45 35.425726 -119.044757 218 510ft 0kts
09-Mar-20 18:46 35.426155 -119.046922 315 510ft 36kts
09-Mar-20 18:47 35.443687 -119.070902 292 1124ft 112kts
09-Mar-20 18:48 35.433908 -119.115324 254 1745ft 149kts
09-Mar-20 18:49 35.405542 -119.150472 211 2355ft 155kts
09-Mar-20 18:50 35.368295 -119.177304 209 2956ft 155kts
09-Mar-20 18:51 35.331046 -119.203618 208 3557ft 153kts
09-Mar-20 18:52 35.294216 -119.229585 208 4158ft 152kts
09-Mar-20 18:53 35.258117 -119.255031 207 4755ft 147kts
09-Mar-20 18:54 35.224616 -119.247509 123 5368ft 132kts
09-Mar-20 18:55 35.203485 -119.210834 122 5972ft 131kts
09-Mar-20 18:56 35.182578 -119.174863 123 6571ft 129kts
09-Mar-20 18:57 35.161811 -119.139374 123 7171ft 127kts
09-Mar-20 18:58 35.141502 -119.104704 124 7766ft 124kts
09-Mar-20 18:59 35.120288 -119.068459 124 7995ft 143kts
09-Mar-20 19:00 35.096021 -119.027189 124 7992ft 153kts
09-Mar-20 19:01 35.071388 -118.985320 125 8205ft 143kts
09-Mar-20 19:02 35.048895 -118.947707 135 8678ft 132kts
09-Mar-20 19:03 35.015059 -118.934014 160 9164ft 127kts
09-Mar-20 19:04 34.981655 -118.921967 162 9650ft 123kts
09-Mar-20 19:05 34.949120 -118.910768 163 10136ft 119kts
09-Mar-20 19:06 34.917592 -118.899948 159 10619ft 115kts
09-Mar-20 19:07 34.886939 -118.889407 159 11039ft 117kts
09-Mar-20 19:08 34.852830 -118.877702 159 11043ft 133kts
09-Mar-20 19:09 34.816557 -118.865330 160 11074ft 134kts
09-Mar-20 19:10 34.779305 -118.856838 166 11088ft 137kts
09-Mar-20 19:11 34.741340 -118.850545 167 11088ft 138kts
09-Mar-20 19:12 34.703284 -118.844300 167 11083ft 138kts
09-Mar-20 19:13 34.665040 -118.838138 167 11063ft 138kts
09-Mar-20 19:14 34.626820 -118.831944 167 11042ft 138kts
09-Mar-20 19:15 34.588771 -118.825711 167 11020ft 138kts
09-Mar-20 19:16 34.550930 -118.819515 167 10999ft 137kts
09-Mar-20 19:17 34.511485 -118.812996 167 10636ft 154kts
09-Mar-20 19:18 34.467588 -118.807669 171 9933ft 159kts
09-Mar-20 19:19 34.426209 -118.793974 157 9221ft 151kts
09-Mar-20 19:20 34.385910 -118.778830 158 8514ft 154kts
09-Mar-20 19:21 34.346221 -118.764689 157 7803ft 132kts
09-Mar-20 19:22 34.312372 -118.752474 157 7084ft 125kts
09-Mar-20 19:23 34.277218 -118.746478 163 6373ft 128kts
09-Mar-20 19:24 34.244484 -118.730844 152 5668ft 127kts
09-Mar-20 19:25 34.218518 -118.752875 259 5015ft 143kts
09-Mar-20 19:26 34.211187 -118.797856 263 4717ft 139kts
09-Mar-20 19:27 34.211331 -118.846343 271 4007ft 147kts
09-Mar-20 19:28 34.211990 -118.895516 272 3181ft 141kts
09-Mar-20 19:30 34.212375 -118.940096 272 2473ft 114kts
09-Mar-20 19:31 34.212184 -118.976219 272 1850ft 93kts
09-Mar-20 19:32 34.212891 -119.010084 282 1154ft 107kts
09-Mar-20 19:33 34.211584 -119.044373 278 472ft 109kts
09-Mar-20 19:34 34.213945 -119.075314 266 305ft 86kts
09-Mar-20 19:35 34.213173 -119.095415 219 81ft 16kts
09-Mar-20 19:36 34.212951 -119.095588 203 81ft 0kts
09-Mar-20 19:37 34.211620 -119.095372 148 81ft 8kts
09-Mar-20 19:38 34.210692 -119.093399 86 81ft 5kts
09-Mar-20 19:39 34.210728 -119.093310 36 81ft 0kts

Navigation Log

Ident Type
Flight plan parsing failed, navigation log unavailable